Au Train, Michigan
Current Conditions -  °F | °C
As of 8:51 PM on Friday 31 Oct 2014 (Local Time) from KSAW Reporting Station
Light Snow Light Snow  
Wind Chill: 20°   Ceiling: 2500
Heat Index: 30°   Visibility: 5mi
Dew Point: 27°   Wind: 14mph
Humidity: 86%   Direction: 360°N
Pressure: 30.4"   Gusts: 25mph
Location:  46.43°N, 86.84°W
Report Text: KSAW 010051Z 36012G22KT 5SM -SN SCT020 BKN025 OVC036 M01/M03 A3040
Loading
Personal Weather Stations






























Interactive Weather Map
Tropical Storm Tracking
New forecast layout! Learn more

10-Day Weather Forecast

Advertisements
Track Severe Weather on mobile